Terminal Aerodrome Forecast
Issued by NWS Caribou, ME

Home | Current Version | Previous Version | Text Only | Print | Product List | Glossary On
Versions: 1 2 3 4 5 6 7 8 9 10 11 12 13 14 15 16 17 18 19 20 21
635
FTUS41 KCAR 062208 AAB
TAFCAR
TAF AMD
KCAR 062208Z 0622/0718 VRB03KT P6SM BKN015
     FM070000 VRB03KT P6SM SCT020
     FM070800 00000KT 3SM BR SCT010 BKN025
     FM071100 00000KT 1SM BR SCT004 OVC015
     FM071400 VRB03KT P6SM SCT015 BKN025=

USA.gov is the U.S. government's official web portal to all federal, state and local government web resources and services.